Taunton, New York
Current Conditions -  °F | °C
As of 3:54 PM on Friday 26 Dec 2014 (Local Time) from KSYR Reporting Station
Scattered Clouds Scattered Clouds  
Wind Chill: 39°   Ceiling: Unl
Heat Index: 43°   Visibility: 10mi
Dew Point: 29°   Wind: 7mph
Humidity: 58%   Direction: 250°WSW
Pressure: 30.14"   Gusts: NA
Location:  43.0396°N, 76.2224°W
Report Text: KSYR 262054Z 25006KT 10SM FEW030 SCT200 06/M02 A3014 RMK AO2 SLP207 T00611017 56011 $
Loading
Personal Weather Stations






























Interactive Weather Map New forecast layout! Learn more

10-Day Weather Forecast

Advertisements
Track Severe Weather on mobile